Weather observations for the past three days for
Stafford, Stafford Regional Airport
Imperial (Metric)
Date Time (edt) Wind (mph) Vis. (mi.) Weather Sky Cond. Temperature (ºF) Relative Humidity Wind Chill (°F) Heat Index (°F) Pressure Precipitation (in)
Air Dwpt 6 hour altimeter (in) sea level (mb) 1 hr 3 hr 6 hr
Max. Min.
09 03:15 S 6 10.00 Fair CLR 56.3 39.2 53% 29.91 0.0
09 02:55 S 6 10.00 Fair CLR 55.4 38.5 53% 29.91 0.0
09 02:35 Calm 10.00 Fair CLR 54.5 38.1 54% 29.9 0.0
09 02:15 S 3 10.00 Fair CLR 55 37.8 52% 29.92 0.0
09 01:55 Calm 10.00 Fair CLR 55.2 37.4 67.6 55 51% 29.9 0.0
09 01:35 S 3 10.00 Fair CLR 55.4 36.9 50% 29.9 0.0
09 01:15 S 3 10.00 Fair CLR 55.9 36.7 49% 29.9 0.0
09 00:55 S 5 10.00 Fair CLR 56.5 36.5 47% 29.9 0.0
09 00:35 S 5 10.00 Fair CLR 56.5 36.5 47% 29.89 0.0
09 00:15 S 3 10.00 Fair CLR 57.6 36.1 45% 29.9 0.0
08 23:55 S 5 10.00 Fair CLR 58.1 35.8 43% 29.91 0.0
08 23:35 S 5 10.00 Fair CLR 59 35.2 41% 29.91 0.0
08 23:15 S 3 10.00 Fair CLR 59.9 35.1 40% 29.91 0.0
08 22:55 S 5 10.00 Fair CLR 60.8 34.7 38% 29.91 0.0
08 22:15 S 5 10.00 Fair CLR 61.9 34.5 36% 29.91 0.0
08 21:55 S 5 10.00 Fair CLR 62.6 33.8 34% 29.9 0.0
08 21:35 S 5 10.00 Fair CLR 63 32.9 33% 29.9 0.0
08 21:15 S 3 10.00 Fair CLR 64 32.5 31% 29.89 0.0
08 20:55 S 6 10.00 Fair CLR 64.9 32 29% 29.89 0.0
08 20:35 S 6 10.00 Fair CLR 65.8 32.2 29% 29.89 0.0
08 20:15 S 6 10.00 Fair CLR 66.7 31.5 27% 29.89 0.0
08 19:55 S 7 10.00 Fair CLR 67.6 31.3 74.7 67.6 26% 29.88 0.0
08 19:35 S 7 10.00 Fair CLR 68.5 30.9 25% 29.89 0.0
08 19:15 S 7 10.00 Fair CLR 69.4 29.7 23% 29.89 0.0
08 18:55 S 7 10.00 Fair CLR 70.3 30.6 23% 29.88 0.0
08 18:35 S 8 G 17 10.00 Fair CLR 71.2 29.5 21% 29.86 0.0
08 18:15 S 9 10.00 Fair CLR 71.8 29.7 21% 29.88 0.0
08 17:55 S 9 10.00 Fair CLR 72.9 28 19% 29.87 0.0
08 17:35 SW 6 G 16 10.00 Fair CLR 73.2 28 19% 29.88 0.0
08 17:15 SW 12 10.00 Fair CLR 73.6 28.8 19% 29.89 0.0
08 16:55 S 7 10.00 Partly Cloudy SCT090 74.3 28.8 19% 29.88 0.0
08 16:35 SW 6 10.00 Partly Cloudy SCT090 73.4 28 19% 29.89 0.0
08 16:15 S 5 10.00 Partly Cloudy SCT090 73.4 27.5 18% 29.9 0.0
08 15:55 S 8 G 16 10.00 Partly Cloudy SCT080 73.4 27 18% 29.91 0.0
08 15:35 S 8 G 16 10.00 Partly Cloudy SCT080 73.6 28.8 19% 29.91 0.0
08 15:15 SW 9 G 18 10.00 Partly Cloudy SCT080 72.3 25.5 17% 29.92 0.0
08 14:55 W 8 10.00 Fair CLR 71.8 25.2 17% 29.94 0.0
08 14:35 S 10 10.00 Fair CLR 72.3 28.8 20% 29.94 0.0
08 14:15 W 5 G 17 10.00 Partly Cloudy SCT075 70.7 26.8 19% 29.94 0.0
08 13:55 SW 7 10.00 Partly Cloudy SCT075 69.3 28.9 70.7 48.2 22% 29.96 0.0
08 13:35 SW 10 G 16 10.00 Partly Cloudy SCT075 70.5 29.1 21% 29.95 0.0
08 13:15 SW 9 G 18 10.00 Fair CLR 70 28.9 22% 29.96 0.0
08 12:55 SW 10 G 16 10.00 Partly Cloudy SCT075 69.3 29.5 23% 29.97 0.0
08 12:35 W 5 10.00 Mostly Cloudy BKN075 67.8 30.2 25% 29.98 0.0
08 12:15 SW 9 10.00 Partly Cloudy SCT075 67.6 30.4 25% 29.99 0.0
08 11:55 W 8 10.00 Fair CLR 67.5 27.7 22% 29.99 0.0
08 11:35 SW 6 10.00 Fair CLR 67.1 28.2 23% 30.01 0.0
08 11:15 SW 3 10.00 Fair CLR 64.8 29.5 27% 30.01 0.0
08 10:55 SW 8 10.00 Fair CLR 64.4 29.1 27% 30.01 0.0
08 10:35 W 3 10.00 Fair CLR 62.6 28.6 28% 30.02 0.0
08 10:15 SW 6 10.00 Fair CLR 62.8 31.1 30% 30.02 0.0
08 09:55 S 5 10.00 Fair CLR 61.5 33.1 34% 30.03 0.0
08 09:35 SW 5 10.00 Fair CLR 59.4 33.6 38% 30.02 0.0
08 09:15 Calm 10.00 Fair CLR 57.2 38.5 50% 30.03 0.0
08 08:55 Calm 10.00 Fair CLR 55.4 39.7 56% 30.03 0.0
08 08:35 Calm 10.00 Fair CLR 52.7 41.4 66% 30.02 0.0
08 08:15 Calm 10.00 Fair CLR 50.5 43.5 77% 30.02 0.0
08 07:55 Calm 10.00 Fair CLR 48.2 43.3 48.2 39.4 83% 30.01 0.0
08 07:35 Calm 10.00 Fair CLR 45 41.4 87% 30.02 0.0
08 07:15 Calm 10.00 Fair CLR 42.6 40.3 91% 30 0.0
08 06:55 Calm 10.00 Fair CLR 40.8 38.7 92% 29.99 0.0
08 06:35 Calm 10.00 Fair CLR 40.3 38.1 92% 29.98 0.0
08 06:15 Calm 7.00 Fair CLR 39.4 37.2 92% 29.97 0.0
08 05:55 Calm 7.00 Fair CLR 39.9 37.8 92% 29.96 0.0
08 05:35 Calm 7.00 Fair CLR 40.5 38.3 92% 29.96 0.0
08 05:15 Calm 7.00 Fair CLR 41.4 39.2 92% 29.96 0.0
08 04:55 Calm 7.00 Fair CLR 41.7 39.6 92% 29.96 0.0
08 04:35 Calm 5.00 Fog/Mist CLR 42.8 40.6 92% 29.95 0.0
08 04:15 Calm 10.00 Fair CLR 43.9 41.7 92% 29.94 0.0
08 03:55 Calm 10.00 Fair CLR 44.6 42.4 92% 29.94 0.0
08 03:15 Calm 7.00 Fair CLR 45.9 43.5 92% 29.92 0.0
08 02:55 Calm 5.00 Fog/Mist CLR 46.8 44.2 91% 29.92 0.0
08 02:35 Calm 10.00 Fair CLR 48.2 45 89% 29.91 0.0
08 02:15 Calm 10.00 Fair CLR 48.2 45.1 89% 29.91 0.0
08 01:55 Calm 10.00 Fair CLR 48.2 45.1 55.8 48.2 89% 29.9 0.0
08 01:35 NW 3 10.00 Fair CLR 48.6 45.3 89% 29.91 0.0
08 01:15 Calm 10.00 Fair CLR 49.6 46 88% 29.9 0.0
08 00:55 W 3 10.00 Fair CLR 50 46.4 88% 29.9 0.0
08 00:35 Calm 10.00 Fair CLR 50 46.4 88% 29.9 0.0
08 00:15 Calm 10.00 Fair CLR 48.4 44.8 87% 29.88 0.0
07 23:55 Calm 10.00 Fair CLR 49.3 45.7 87% 29.88 0.0
07 23:35 Calm 10.00 Fair CLR 50.2 46.2 86% 29.87 0.0
07 23:15 Calm 10.00 Partly Cloudy SCT090 49.8 45.5 85% 29.87 0.0
07 22:55 Calm 10.00 Mostly Cloudy BKN090 50.4 45.3 83% 29.87 0.0
07 22:35 Calm 10.00 Mostly Cloudy BKN090 51.3 46.2 83% 29.88 0.0
07 22:15 Calm 10.00 Partly Cloudy SCT090 51.8 45.7 80% 29.88 0.0
07 21:55 Calm 10.00 Mostly Cloudy BKN090 52.2 45.1 77% 29.86 0.0
07 21:35 Calm 10.00 Overcast OVC090 53.6 45.1 73% 29.86 0.0
07 21:15 Calm 10.00 Overcast OVC090 53.6 45.3 74% 29.85 0.0
07 20:55 Calm 10.00 Mostly Cloudy BKN090 53.6 45.5 74% 29.85 0.0
07 20:35 SW 3 10.00 Partly Cloudy SCT090 53.8 45.5 74% 29.84 0.0
07 20:15 SW 5 10.00 Fair CLR 54.7 44.8 69% 29.84 0.0
07 19:55 SW 5 10.00 Fair CLR 55.8 44.6 62.4 55.8 66% 29.84 0.0
07 19:35 SW 5 10.00 Fair CLR 57 45 64% 29.82 0.0
07 19:15 Calm 10.00 Partly Cloudy SCT027 57.9 45.9 64% 29.83 0.0
07 18:55 SW 6 10.00 Fair CLR 59 44.8 59% 29.81 0.0
07 18:35 S 5 10.00 Fair CLR 59.2 44.4 58% 29.82 0.0
07 18:15 S 6 10.00 Fair CLR 60.1 44.6 57% 29.82 0.0
07 17:55 S 5 10.00 Fair CLR 59.7 43 54% 29.81 0.0
07 17:35 S 8 10.00 Partly Cloudy SCT095 61 44.8 55% 29.81 0.0
07 17:15 S 7 10.00 Fair CLR 60.6 43.3 53% 29.82 0.0
07 16:15 S 7 10.00 Mostly Cloudy SCT029 SCT050 BKN110 61.7 42.8 50% 29.81 0.0
07 15:55 SE 8 10.00 Mostly Cloudy SCT033 SCT047 BKN080 60.6 39.2 45% 29.83 0.0
07 15:35 S 5 10.00 Mostly Cloudy SCT032 SCT044 BKN080 61.7 40.1 45% 29.83 0.0
07 15:15 Calm 10.00 Overcast SCT033 SCT044 OVC080 59.2 38.3 46% 29.83 0.0
07 14:55 E 5 10.00 Mostly Cloudy SCT022 SCT034 BKN070 58.8 37.4 45% 29.85 0.0
07 14:35 E 7 10.00 Light Rain SCT019 SCT033 OVC070 57.7 38.5 49% 29.84 0.0
07 14:15 SE 3 10.00 Overcast SCT055 OVC070 57.9 36 44% 29.86 0.0
07 13:55 NE 5 10.00 Overcast BKN055 OVC070 57.9 37.2 58.5 54.5 46% 29.87 0.0 0.02
07 13:35 NE 6 10.00 Overcast OVC070 57.9 37.2 46% 29.87 0.0
07 13:15 N 6 10.00 Overcast SCT015 SCT046 OVC070 57.2 38.7 50% 29.87 0.0
07 12:55 N 3 10.00 Overcast BKN050 OVC070 55.9 41.5 59% 29.88 0.0
07 12:35 Calm 10.00 Light Drizzle OVC050 55.4 41.4 59% 29.9 0.0
07 12:15 Calm 10.00 Light Rain OVC050 55.4 43.2 64% 29.89 0.0
07 11:55 N 3 10.00 Overcast OVC048 54.7 42.6 64% 29.9 0.0 0.02
07 11:35 N 5 10.00 Rain OVC048 55.6 40.5 57% 29.88 0.0
07 11:15 N 6 10.00 Overcast OVC048 56.5 40.3 55% 29.9 0.0
07 10:55 N 6 10.00 Overcast OVC048 56.3 42.4 60% 29.9 0.0
07 10:35 N 5 10.00 Overcast OVC048 55.9 43 62% 29.91 0.0
07 10:15 N 6 10.00 Overcast OVC046 56.1 44.6 65% 29.91 0.0
07 09:55 N 6 10.00 Overcast OVC046 56.5 45.1 66% 29.91 0.0
07 09:35 N 5 10.00 Overcast OVC046 57.2 45.5 65% 29.92 0.0
07 09:15 N 6 10.00 Overcast OVC046 56.7 44.8 65% 29.92 0.0
07 08:55 N 7 10.00 Overcast OVC044 56.5 45.5 67% 29.92 0.0
07 08:35 N 6 10.00 Overcast OVC042 56.5 47.8 73% 29.91 0.0
07 08:15 N 5 10.00 Overcast OVC040 56.3 48.9 76% 29.9 0.0
07 07:55 NE 6 10.00 Overcast OVC038 55.6 49.1 58.1 54.5 79% 29.9 0.0 0.02
07 07:35 Calm 10.00 Overcast OVC038 55.4 49.5 81% 29.9 0.0
07 07:15 Calm 10.00 Overcast OVC038 54.9 49.5 82% 29.9 0.0
07 06:55 N 5 10.00 Overcast OVC038 54.5 49.3 83% 29.88 0.0
07 06:35 N 6 10.00 Overcast OVC038 54.9 49.3 82% 29.88 0.0
07 06:15 Calm 10.00 Overcast OVC038 54.7 49.3 82% 29.87 0.0
07 05:55 Calm 10.00 Overcast OVC036 55 49.3 81% 29.87 0.0
07 05:35 N 5 10.00 Overcast OVC036 55.4 48.9 79% 29.87 0.0
07 05:15 N 3 10.00 Overcast OVC034 55.4 49.3 80% 29.86 0.0
07 04:55 N 6 10.00 Overcast OVC034 55.4 50 82% 29.85 0.0 0.02
07 04:35 N 5 10.00 Overcast OVC032 55.8 50.4 82% 29.86 0.0
07 04:15 N 6 10.00 Overcast OVC032 55.9 52 87% 29.87 0.0
07 03:55 N 5 10.00 Light Rain OVC032 56.3 52.3 87% 29.85 0.0
07 03:35 N 3 10.00 Overcast OVC032 56.5 52.7 87% 29.85 0.0
07 03:15 N 5 10.00 Overcast OVC032 56.5 52.7 87% 29.85 0.0
07 02:55 N 5 10.00 Overcast OVC030 56.8 52.5 86% 29.84 0.0 0.02
07 02:35 N 7 10.00 Light Drizzle OVC028 57.2 52.7 85% 29.85 0.0 0.02
07 02:15 NW 9 10.00 Light Rain OVC026 57.7 54 87% 29.84 0.0 0.02
07 01:55 N 9 10.00 Light Rain SCT028 SCT080 OVC110 58.1 54.3 69.8 58.1 87% 29.81 0.0 0.02 0.15
07 00:35 N 7 5.00 Thunderstorm Heavy Rain in Vicinity SCT016 OVC022 62.6 57.7 84% 29.82 0.0 0.11
07 00:15 N 5 10.00 Thunderstorm Light Rain in Vicinity OVC022 65.8 58.8 78% 29.81 0.0
06 23:55 Calm 10.00 Light Drizzle OVC024 66.6 60.3 80% 29.83 0.0
06 23:35 NW 3 10.00 Overcast OVC026 65.8 60.8 84% 29.82 0.0
06 23:15 Calm 10.00 Overcast BKN028 OVC037 65.8 60.8 84% 29.82 0.0
06 22:55 Calm 10.00 Overcast SCT028 BKN037 OVC048 65.8 60.6 83% 29.82 0.0
06 22:35 NW 3 10.00 Mostly Cloudy BKN048 64 59.9 87% 29.81 0.0
06 22:15 Calm 10.00 Overcast OVC050 65.8 60.4 83% 29.8 0.0
06 21:55 Calm 10.00 Mostly Cloudy SCT050 BKN065 65.8 60.1 82% 29.8 0.0
06 21:35 Calm 10.00 Fair CLR 65.8 59.9 81% 29.8 0.0
06 21:15 Calm 10.00 Fair CLR 68 59.5 74% 29.81 0.0
06 20:55 SW 3 10.00 Fair CLR 68.2 59.9 75% 29.8 0.0
06 20:35 S 5 10.00 Fair CLR 68.4 59.9 75% 29.79 0.0
06 20:15 S 5 10.00 Partly Cloudy SCT060 69.4 59.9 72% 29.79 0.0
06 19:55 SW 7 10.00 Partly Cloudy SCT060 69.8 59.7 72.9 66.7 70% 29.79 0.0
06 19:35 SW 5 10.00 Partly Cloudy SCT060 SCT080 70.7 59.4 67% 29.77 0.0
06 19:15 SW 7 10.00 Partly Cloudy SCT080 70.7 59.2 67% 29.78 0.0
06 18:55 S 6 10.00 Partly Cloudy SCT080 71.1 59 66% 29.78 0.0
06 18:35 S 7 10.00 Fair CLR 71.6 58.8 64% 29.78 0.0
06 18:15 SW 8 10.00 Fair CLR 72.9 59.2 62% 29.78 0.0
06 17:55 SW 7 10.00 Partly Cloudy SCT027 72.3 59.4 64% 29.79 0.0
06 17:35 SW 8 G 20 10.00 Partly Cloudy SCT027 72.5 58.8 62% 29.79 0.0
06 17:15 SW 7 G 20 10.00 Fair CLR 71.6 58.3 63% 29.79 0.0
06 16:55 S 10 G 21 10.00 Fair CLR 70.9 58.1 64% 29.77 0.0
06 16:35 S 14 G 20 10.00 Fair CLR 70.5 58.1 65% 29.78 0.0
06 16:15 S 12 G 20 10.00 Fair CLR 70 57.9 66% 29.78 0.0
06 15:55 S 7 10.00 Partly Cloudy SCT021 SCT055 69.3 58.8 70% 29.79 0.0
06 15:35 S 6 G 17 10.00 Partly Cloudy SCT019 SCT055 67.6 58.1 72% 29.79 0.0
06 15:15 SW 10 G 17 10.00 Mostly Cloudy BKN019 67.6 58.1 72% 29.8 0.0
06 14:55 S 7 G 20 10.00 Mostly Cloudy BKN019 67.8 58.1 71% 29.81 0.0
06 14:35 S 10 G 16 10.00 Mostly Cloudy BKN019 67.6 58.3 72% 29.81 0.0
06 14:15 SW 8 10.00 Partly Cloudy SCT019 67.6 58.1 72% 29.82 0.0
06 13:55 S 9 G 17 10.00 Mostly Cloudy SCT019 BKN100 67.5 57.9 67.6 62.6 72% 29.81 0.0 0.15
06 13:35 SW 9 G 18 10.00 Mostly Cloudy BKN019 66.6 58.1 74% 29.83 0.0
06 13:15 SW 12 G 18 10.00 Mostly Cloudy BKN019 BKN024 65.8 57.6 75% 29.83 0.0
06 12:55 SW 12 G 21 10.00 Mostly Cloudy BKN019 BKN024 65.8 57.6 75% 29.82 0.0
06 12:35 S 10 G 20 10.00 Mostly Cloudy BKN021 BKN026 BKN046 65.8 58.1 76% 29.83 0.0
06 12:15 SW 9 G 22 10.00 Light Drizzle BKN021 BKN048 OVC100 64 58.1 81% 29.85 0.0
06 11:55 S 9 G 17 10.00 Light Rain SCT016 BKN060 OVC100 63.1 58.3 84% 29.84 0.0 0.02
06 11:35 S 14 G 18 10.00 Light Rain BKN018 BKN041 OVC100 63 58.6 86% 29.84 0.0 0.02
06 11:15 SW 8 10.00 Light Rain BKN016 BKN030 OVC090 62.8 59.2 88% 29.84 0.0
06 10:55 S 9 7.00 Rain SCT018 BKN070 OVC090 62.6 58.6 87% 29.85 0.0 0.09 0.13
06 10:35 S 8 5.00 Light Rain SCT018 BKN055 OVC080 62.6 58.1 85% 29.86 0.0 0.07
06 10:15 S 7 10.00 Rain BKN060 OVC075 62.8 57 82% 29.86 0.0
06 09:55 S 6 10.00 Overcast BKN065 OVC095 62.6 56.7 81% 29.86 0.0 0.04
06 09:35 S 7 10.00 Light Rain SCT075 BKN095 OVC110 62.6 56.3 80% 29.84 0.0 0.04
06 09:15 S 7 10.00 Light Drizzle SCT065 OVC110 63.3 55.4 76% 29.86 0.0
06 08:55 S 8 10.00 Light Rain OVC110 63 54.9 75% 29.85 0.0
06 08:35 S 7 10.00 Light Rain OVC110 63.9 54.7 72% 29.84 0.0
06 08:15 S 5 10.00 Rain OVC110 63.9 54.7 72% 29.84 0.0
06 07:55 S 7 10.00 Drizzle SCT090 OVC110 65.1 53.8 70.5 65.1 67% 29.84 0.0
06 07:35 SW 10 G 21 10.00 Light Drizzle SCT090 OVC110 66.4 52.5 61% 29.85 0.0
06 07:15 S 12 G 20 10.00 Mostly Cloudy BKN110 66.4 52.7 62% 29.85 0.0
06 06:55 S 12 G 17 10.00 Partly Cloudy SCT120 66.2 52.7 62% 29.84 0.0
06 06:35 S 8 G 16 10.00 Fair CLR 66.2 52.7 62% 29.84 0.0
06 06:15 S 10 G 18 10.00 Partly Cloudy SCT100 66.2 52.5 62% 29.84 0.0
06 05:55 S 9 G 17 10.00 Partly Cloudy SCT100 66.2 52.3 61% 29.84 0.0
06 05:35 S 7 G 16 10.00 Fair CLR 66.4 52 60% 29.84 0.0
06 05:15 S 9 10.00 Fair CLR 66.2 51.8 60% 29.84 0.0
06 04:55 S 9 G 17 10.00 Fair CLR 66.2 51.8 60% 29.84 0.0
06 04:35 S 10 10.00 Fair CLR 66.2 51.4 59% 29.84 0.0
06 04:15 S 13 G 20 10.00 Fair CLR 66.9 51.3 57% 29.84 0.0
06 03:55 S 10 G 17 10.00 Fair CLR 67.6 51.4 56% 29.84 0.0
06 03:35 S 9 G 16 10.00 Fair CLR 67.6 50.9 55% 29.84 0.0
Date Time (edt) Wind (mph) Vis. (mi.) Weather Sky Cond. Air Dwpt Max. Min. Relative Humidity Wind Chill (°F) Heat Index (°F) altimeter (in) sea level (mb) 1 hr 3 hr 6 hr
6 hour
Temperature (ºF) Pressure Precipitation (in)